createdAt,value
2022-11-15T00:02:21.973Z,13.20
2022-11-15T00:08:42.595Z,13.93
2022-11-15T00:15:03.633Z,13.82
2022-11-15T00:21:24.230Z,14.35
2022-11-15T00:27:46.571Z,16.23
2022-11-15T00:34:07.656Z,15.65
2022-11-15T00:40:28.917Z,14.55
2022-11-15T00:46:49.429Z,13.88
2022-11-15T00:53:10.404Z,14.27
2022-11-15T00:59:31.183Z,14.48
2022-11-15T01:05:52.064Z,16.15
2022-11-15T01:12:12.857Z,15.68
2022-11-15T01:18:33.987Z,13.77
2022-11-15T01:24:54.651Z,14.73
2022-11-15T01:31:21.001Z,15.43
2022-11-15T01:37:41.961Z,15.68
2022-11-15T01:44:41.205Z,14.52
2022-11-15T01:51:07.743Z,15.35
2022-11-15T01:57:28.392Z,16.35
2022-11-15T02:03:57.968Z,14.15
2022-11-15T02:10:22.155Z,15.75
2022-11-15T02:17:09.178Z,15.55
2022-11-15T02:23:42.737Z,15.50
2022-11-15T02:30:22.895Z,14.45
2022-11-15T02:36:56.008Z,14.95
2022-11-15T02:43:51.183Z,15.37
2022-11-15T02:50:14.911Z,15.43
2022-11-15T03:03:31.083Z,16.52
2022-11-15T03:10:08.980Z,17.08
2022-11-15T03:16:29.813Z,15.30
2022-11-15T03:22:51.849Z,14.80
2022-11-15T03:29:21.418Z,15.98
2022-11-15T03:35:45.791Z,14.93
2022-11-15T03:42:25.230Z,16.58
2022-11-15T03:48:51.777Z,14.77
2022-11-15T03:55:15.140Z,15.90
2022-11-15T04:01:35.996Z,15.98
2022-11-15T04:07:56.753Z,16.50
2022-11-15T04:14:18.057Z,17.50
2022-11-15T04:20:57.661Z,16.50
2022-11-15T04:27:18.392Z,17.60
2022-11-15T04:33:38.857Z,20.95
2022-11-15T04:39:59.539Z,17.83
2022-11-15T04:46:20.143Z,17.52
2022-11-15T04:52:51.486Z,17.70
2022-11-15T04:59:12.224Z,19.85
2022-11-15T05:05:33.257Z,18.50
2022-11-15T05:11:54.091Z,18.98
2022-11-15T05:18:18.262Z,16.70
2022-11-15T05:24:41.926Z,16.52
2022-11-15T05:31:07.314Z,16.02
2022-11-15T05:37:28.011Z,17.60
2022-11-15T05:43:50.736Z,15.32
2022-11-15T05:50:18.286Z,16.75
2022-11-15T05:56:39.715Z,15.80
2022-11-15T06:03:00.752Z,14.50
2022-11-15T06:09:21.658Z,13.90
2022-11-15T06:15:42.484Z,14.27
2022-11-15T06:22:03.588Z,15.48
2022-11-15T06:28:24.695Z,15.88
2022-11-15T06:34:45.210Z,12.98
2022-11-15T06:41:07.669Z,14.90
2022-11-15T06:47:28.481Z,18.42
2022-11-15T06:53:49.384Z,16.52
2022-11-15T07:00:11.337Z,17.73
2022-11-15T07:06:32.227Z,18.67
2022-11-15T07:12:53.832Z,18.15
2022-11-15T07:19:14.625Z,18.67
2022-11-15T07:25:35.780Z,17.70
2022-11-15T07:31:56.576Z,18.17
2022-11-15T07:38:20.775Z,18.75
2022-11-15T07:44:41.754Z,20.10
2022-11-15T07:51:03.488Z,19.55
2022-11-15T07:57:24.249Z,19.00
2022-11-15T08:03:45.026Z,20.60
2022-11-15T08:10:08.592Z,20.48
2022-11-15T08:16:30.171Z,22.27
2022-11-15T08:22:51.282Z,19.48
2022-11-15T08:29:11.866Z,22.65
2022-11-15T08:35:32.509Z,23.15
2022-11-15T08:41:54.126Z,22.02
2022-11-15T08:48:15.214Z,18.45
2022-11-15T08:54:37.434Z,21.33
2022-11-15T09:00:58.442Z,18.45
2022-11-15T09:07:19.652Z,17.70
2022-11-15T09:13:41.017Z,19.00
2022-11-15T09:20:01.814Z,20.45
2022-11-15T09:26:23.483Z,20.17
2022-11-15T09:32:44.208Z,19.70
2022-11-15T09:39:05.018Z,21.48
2022-11-15T09:45:34.527Z,23.52
2022-11-15T09:51:56.179Z,22.60
2022-11-15T09:58:25.504Z,21.33
2022-11-15T10:04:29.155Z,18.60
2022-11-15T10:10:40.744Z,19.13
2022-11-15T10:17:12.817Z,18.63
2022-11-15T10:23:20.185Z,26.30
2022-11-15T10:29:27.009Z,22.30
2022-11-15T10:35:32.206Z,19.42
2022-11-15T10:41:41.019Z,19.10
2022-11-15T10:47:43.438Z,18.83
2022-11-15T10:53:47.547Z,21.05
2022-11-15T10:59:53.489Z,23.60
2022-11-15T11:06:15.913Z,21.27
2022-11-15T11:12:29.739Z,19.27
2022-11-15T11:18:42.316Z,17.80
2022-11-15T11:25:03.763Z,18.10
2022-11-15T11:31:28.239Z,19.60
2022-11-15T11:38:01.403Z,20.20
2022-11-15T11:44:09.410Z,30.30
2022-11-15T11:50:16.979Z,19.55
2022-11-15T11:56:33.980Z,19.70
2022-11-15T12:02:43.382Z,21.05
2022-11-15T12:09:13.839Z,20.45
2022-11-15T12:15:28.058Z,18.42
2022-11-15T12:22:14.529Z,19.10
2022-11-15T12:28:27.200Z,18.85
2022-11-15T12:34:30.418Z,17.48
2022-11-15T12:40:57.627Z,18.27
2022-11-15T12:47:01.996Z,15.98
2022-11-15T12:53:26.682Z,16.58
2022-11-15T13:00:25.385Z,17.20
2022-11-15T13:06:44.246Z,15.35
2022-11-15T13:12:47.091Z,17.10
2022-11-15T13:24:58.430Z,17.95
2022-11-15T13:31:22.085Z,17.00
2022-11-15T13:37:24.335Z,16.17
2022-11-15T13:43:35.566Z,16.25
2022-11-15T13:49:39.625Z,17.92
2022-11-15T13:55:44.958Z,15.77
2022-11-15T14:01:47.637Z,16.13
2022-11-15T14:08:03.149Z,16.50
2022-11-15T14:14:14.663Z,14.30
2022-11-15T14:20:26.612Z,15.73
2022-11-15T14:26:35.138Z,14.98
2022-11-15T14:32:51.553Z,15.20
2022-11-15T14:38:55.941Z,15.35
2022-11-15T14:44:58.254Z,14.40
2022-11-15T14:51:00.600Z,16.55
2022-11-15T14:57:02.802Z,17.83
2022-11-15T15:03:06.239Z,15.43
2022-11-15T15:09:08.390Z,17.52
2022-11-15T15:15:16.355Z,16.80
2022-11-15T15:21:24.597Z,16.98
2022-11-15T15:27:26.719Z,16.75
2022-11-15T15:33:29.074Z,18.73
2022-11-15T15:39:31.401Z,17.73
2022-11-15T15:45:34.045Z,17.65
2022-11-15T15:57:38.462Z,16.60
2022-11-15T16:03:40.711Z,14.95
2022-11-15T16:16:04.832Z,17.67
2022-11-15T16:22:07.875Z,17.98
2022-11-15T16:28:23.557Z,18.13
2022-11-15T16:34:30.011Z,18.42
2022-11-15T16:40:36.508Z,17.90
2022-11-15T16:46:41.399Z,17.67
2022-11-15T16:52:43.645Z,16.67
2022-11-15T16:58:45.893Z,18.88
2022-11-15T17:04:48.987Z,19.52
2022-11-15T17:10:51.559Z,22.00
2022-11-15T17:16:56.463Z,22.75
2022-11-15T17:22:58.810Z,18.70
2022-11-15T17:29:01.943Z,19.35
2022-11-15T17:35:11.937Z,20.33
2022-11-15T17:41:16.797Z,18.70
2022-11-15T17:47:19.093Z,20.88
2022-11-15T17:53:21.748Z,19.77
2022-11-15T18:05:26.138Z,20.30
2022-11-15T18:11:33.494Z,21.50
2022-11-15T18:17:36.960Z,22.48
2022-11-15T18:23:39.813Z,20.45
2022-11-15T18:29:42.361Z,21.52
2022-11-15T18:35:44.609Z,23.08
2022-11-15T18:41:47.164Z,23.20
2022-11-15T18:47:49.302Z,23.42
2022-11-15T18:53:56.556Z,22.60
2022-11-15T18:59:58.717Z,21.45
2022-11-15T19:06:12.804Z,22.30
2022-11-15T19:12:15.392Z,22.20
2022-11-15T19:18:17.775Z,24.13
2022-11-15T19:24:20.012Z,22.40
2022-11-15T19:30:22.685Z,22.65
2022-11-15T19:42:31.368Z,23.00
2022-11-15T19:48:35.160Z,26.13
2022-11-15T19:54:37.388Z,24.70
2022-11-15T20:00:39.563Z,25.42
2022-11-15T20:06:43.232Z,19.88
2022-11-15T20:12:45.469Z,27.83
2022-11-15T20:18:50.265Z,26.67
2022-11-15T20:24:52.534Z,27.83
2022-11-15T20:30:57.535Z,28.30
2022-11-15T20:36:59.746Z,28.40
2022-11-15T20:43:02.007Z,25.07
2022-11-15T20:49:04.174Z,25.33
2022-11-15T20:55:06.774Z,26.15
2022-11-15T21:01:11.767Z,26.00
2022-11-15T21:07:14.173Z,25.45
2022-11-15T21:13:17.012Z,26.75
2022-11-15T21:19:22.767Z,26.33
2022-11-15T21:25:29.783Z,29.95
2022-11-15T21:31:32.200Z,29.27
2022-11-15T21:37:34.567Z,25.80
2022-11-15T21:43:36.736Z,28.63
2022-11-15T21:49:39.277Z,28.08
2022-11-15T21:55:41.470Z,29.52
2022-11-15T22:02:02.183Z,28.00
2022-11-15T22:08:04.418Z,37.97
2022-11-15T22:14:07.291Z,27.35
2022-11-15T22:26:31.659Z,29.33
2022-11-15T22:32:33.898Z,29.33
2022-11-15T22:38:37.182Z,28.85
2022-11-15T22:44:39.851Z,25.95
2022-11-15T22:50:43.129Z,31.02
2022-11-15T22:56:45.405Z,28.35
2022-11-15T23:02:51.797Z,24.85
2022-11-15T23:08:55.465Z,26.92
2022-11-15T23:14:57.955Z,27.85
2022-11-15T23:21:00.194Z,27.70
2022-11-15T23:27:05.457Z,29.45
2022-11-15T23:33:26.241Z,27.88
2022-11-15T23:39:29.021Z,25.45
2022-11-15T23:51:33.854Z,26.13
2022-11-15T23:57:36.205Z,26.40
